createdAt,value
2017-09-13T00:00:32.894Z,994.22
2017-09-13T00:01:34.307Z,994.30
2017-09-13T00:02:35.737Z,994.21
2017-09-13T00:03:37.159Z,994.23
2017-09-13T00:04:38.576Z,994.23
2017-09-13T00:05:39.987Z,994.18
2017-09-13T00:06:41.406Z,994.13
2017-09-13T00:07:42.818Z,994.05
2017-09-13T00:08:44.906Z,994.09
2017-09-13T00:09:46.327Z,994.09
2017-09-13T00:10:47.750Z,994.08
2017-09-13T00:11:49.171Z,994.08
2017-09-13T00:12:50.583Z,994.10
2017-09-13T00:13:51.993Z,994.01
2017-09-13T00:14:53.439Z,993.98
2017-09-13T00:15:54.862Z,993.98
2017-09-13T00:16:56.278Z,994.02
2017-09-13T00:17:57.700Z,993.97
2017-09-13T00:18:59.122Z,993.98
2017-09-13T00:20:00.540Z,993.82
2017-09-13T00:21:01.951Z,993.88
2017-09-13T00:22:03.368Z,993.86
2017-09-13T00:23:04.801Z,993.72
2017-09-13T00:24:06.318Z,993.79
2017-09-13T00:25:07.737Z,993.65
2017-09-13T00:26:09.173Z,993.73
2017-09-13T00:27:10.617Z,993.80
2017-09-13T00:28:12.050Z,993.71
2017-09-13T00:29:13.459Z,993.76
2017-09-13T00:30:14.924Z,993.61
2017-09-13T00:31:16.340Z,993.64
2017-09-13T00:32:17.755Z,993.67
2017-09-13T00:33:19.178Z,993.54
2017-09-13T00:34:20.683Z,993.51
2017-09-13T00:35:22.103Z,993.42
2017-09-13T00:36:23.525Z,993.31
2017-09-13T00:37:24.941Z,993.42
2017-09-13T00:38:26.357Z,993.26
2017-09-13T00:39:28.743Z,993.13
2017-09-13T00:40:30.163Z,993.14
2017-09-13T00:41:31.578Z,993.09
2017-09-13T00:42:33.000Z,993.08
2017-09-13T00:43:34.411Z,992.99
2017-09-13T00:44:35.821Z,992.91
2017-09-13T00:45:37.236Z,992.84
2017-09-13T00:46:38.654Z,992.91
2017-09-13T00:47:40.080Z,992.84
2017-09-13T00:48:41.495Z,992.83
2017-09-13T00:49:42.914Z,992.83
2017-09-13T00:50:44.340Z,992.80
2017-09-13T00:51:45.759Z,992.79
2017-09-13T00:52:47.182Z,992.81
2017-09-13T00:53:48.602Z,992.75
2017-09-13T00:54:50.017Z,992.65
2017-09-13T00:55:51.429Z,992.58
2017-09-13T00:56:52.849Z,992.64
2017-09-13T00:57:54.255Z,992.68
2017-09-13T00:58:55.673Z,992.58
2017-09-13T00:59:57.091Z,992.51
2017-09-13T01:00:58.503Z,992.44
2017-09-13T01:01:59.917Z,992.49
2017-09-13T01:03:01.334Z,992.35
2017-09-13T01:04:02.761Z,992.28
2017-09-13T01:05:04.184Z,992.29
2017-09-13T01:06:05.595Z,992.21
2017-09-13T01:07:07.017Z,992.21
2017-09-13T01:08:08.514Z,992.09
2017-09-13T01:09:09.944Z,992.00
2017-09-13T01:10:12.100Z,991.96
2017-09-13T01:11:13.517Z,991.93
2017-09-13T01:12:14.938Z,991.84
2017-09-13T01:13:16.354Z,991.78
2017-09-13T01:14:17.772Z,991.83
2017-09-13T01:15:19.228Z,991.79
2017-09-13T01:16:20.609Z,991.75
2017-09-13T01:17:22.023Z,991.74
2017-09-13T01:18:23.445Z,991.65
2017-09-13T01:19:24.858Z,991.67
2017-09-13T01:20:26.278Z,991.63
2017-09-13T01:21:27.690Z,991.49
2017-09-13T01:22:29.116Z,991.51
2017-09-13T01:23:30.550Z,991.45
2017-09-13T01:24:31.964Z,991.44
2017-09-13T01:25:33.386Z,991.42
2017-09-13T01:26:34.802Z,991.28
2017-09-13T01:27:36.217Z,991.30
2017-09-13T01:28:37.640Z,991.33
2017-09-13T01:29:39.050Z,991.23
2017-09-13T01:30:40.468Z,991.26
2017-09-13T01:31:41.887Z,991.23
2017-09-13T01:32:43.302Z,991.43
2017-09-13T01:33:44.723Z,991.44
2017-09-13T01:34:46.141Z,991.34
2017-09-13T01:35:47.566Z,991.36
2017-09-13T01:36:48.980Z,991.31
2017-09-13T01:37:50.399Z,991.25
2017-09-13T01:38:51.814Z,991.20
2017-09-13T01:39:53.230Z,991.17
2017-09-13T01:40:54.649Z,991.24
2017-09-13T01:41:56.065Z,991.14
2017-09-13T01:42:57.486Z,991.10
2017-09-13T01:43:58.908Z,991.21
2017-09-13T01:45:00.331Z,991.28
2017-09-13T01:46:02.369Z,991.24
2017-09-13T01:47:03.787Z,991.20
2017-09-13T01:48:05.201Z,991.17
2017-09-13T01:49:06.622Z,991.07
2017-09-13T01:50:08.032Z,991.14
2017-09-13T01:51:09.457Z,991.14
2017-09-13T01:52:10.873Z,991.14
2017-09-13T01:53:12.288Z,991.17
2017-09-13T01:54:13.705Z,991.12
2017-09-13T01:55:15.123Z,991.13
2017-09-13T01:56:16.538Z,991.19
2017-09-13T01:57:17.951Z,991.30
2017-09-13T01:58:19.366Z,991.38
2017-09-13T01:59:20.777Z,991.31
2017-09-13T02:00:22.187Z,991.32
2017-09-13T02:01:23.605Z,991.32
2017-09-13T02:02:25.026Z,991.33
2017-09-13T02:03:26.450Z,991.31
2017-09-13T02:04:27.862Z,991.38
2017-09-13T02:05:29.278Z,991.46
2017-09-13T02:06:30.698Z,991.51
2017-09-13T02:07:32.116Z,991.39
2017-09-13T02:08:33.536Z,991.39
2017-09-13T02:09:34.951Z,991.32
2017-09-13T02:10:36.365Z,991.09
2017-09-13T02:11:37.781Z,991.11
2017-09-13T02:12:39.202Z,990.87
2017-09-13T02:13:40.617Z,990.67
2017-09-13T02:14:42.031Z,990.64
2017-09-13T02:15:43.447Z,990.39
2017-09-13T02:16:44.863Z,990.24
2017-09-13T02:17:46.276Z,990.11
2017-09-13T02:18:47.699Z,989.97
2017-09-13T02:19:49.109Z,989.72
2017-09-13T02:20:50.541Z,989.75
2017-09-13T02:21:51.957Z,989.57
2017-09-13T02:22:53.375Z,989.52
2017-09-13T02:23:54.793Z,989.45
2017-09-13T02:24:56.209Z,989.31
2017-09-13T02:25:57.639Z,989.28
2017-09-13T02:26:59.043Z,989.22
2017-09-13T02:28:00.455Z,989.20
2017-09-13T02:29:01.877Z,989.30
2017-09-13T02:30:03.296Z,989.36
2017-09-13T02:31:04.714Z,989.22
2017-09-13T02:32:06.128Z,989.17
2017-09-13T02:33:07.550Z,989.09
2017-09-13T02:34:08.970Z,988.88
2017-09-13T02:35:10.389Z,988.68
2017-09-13T02:36:11.821Z,988.40
2017-09-13T02:37:13.238Z,988.41
2017-09-13T02:38:14.655Z,988.33
2017-09-13T02:39:16.068Z,988.42
2017-09-13T02:40:17.484Z,988.26
2017-09-13T02:41:18.897Z,988.17
2017-09-13T02:42:20.326Z,988.01
2017-09-13T02:43:21.747Z,987.83
2017-09-13T02:44:23.153Z,987.73
2017-09-13T02:45:24.579Z,987.70
2017-09-13T02:46:25.996Z,987.66
2017-09-13T02:47:27.408Z,987.69
2017-09-13T02:48:28.827Z,987.55
2017-09-13T02:49:30.243Z,987.50
2017-09-13T02:50:31.652Z,987.50
2017-09-13T02:51:33.067Z,987.37
2017-09-13T02:52:35.124Z,987.35
2017-09-13T02:53:36.687Z,987.39
2017-09-13T02:54:38.103Z,987.37
2017-09-13T02:55:39.521Z,987.36
2017-09-13T02:56:40.939Z,987.30
2017-09-13T02:57:42.355Z,987.15
2017-09-13T02:58:43.770Z,987.20
2017-09-13T02:59:45.186Z,987.16
2017-09-13T03:00:46.628Z,987.12
2017-09-13T03:01:48.947Z,987.13
2017-09-13T03:02:50.369Z,987.09
2017-09-13T03:03:51.794Z,987.10
2017-09-13T03:04:53.208Z,987.06
2017-09-13T03:05:54.640Z,986.97
2017-09-13T03:06:56.058Z,986.86
2017-09-13T03:07:57.475Z,986.82
2017-09-13T03:08:58.896Z,986.77
2017-09-13T03:10:00.326Z,986.76
2017-09-13T03:11:01.749Z,986.72
2017-09-13T03:12:03.161Z,986.61
2017-09-13T03:13:04.589Z,986.61
2017-09-13T03:14:06.038Z,986.57
2017-09-13T03:15:07.458Z,986.47
2017-09-13T03:16:08.880Z,986.48
2017-09-13T03:17:10.384Z,986.34
2017-09-13T03:18:11.808Z,986.19
2017-09-13T03:19:13.225Z,986.29
2017-09-13T03:20:14.643Z,986.18
2017-09-13T03:21:16.056Z,986.20
2017-09-13T03:22:17.486Z,986.14
2017-09-13T03:23:18.972Z,986.14
2017-09-13T03:24:20.422Z,986.13
2017-09-13T03:25:21.837Z,986.17
2017-09-13T03:26:23.250Z,986.17
2017-09-13T03:27:25.313Z,986.11
2017-09-13T03:28:26.727Z,986.12
2017-09-13T03:29:28.146Z,986.09
2017-09-13T03:30:29.568Z,986.07
2017-09-13T03:31:30.979Z,986.00
2017-09-13T03:32:32.400Z,986.04
2017-09-13T03:33:33.815Z,986.05
2017-09-13T03:34:35.233Z,986.08
2017-09-13T03:35:36.658Z,985.97
2017-09-13T03:36:38.080Z,985.97
2017-09-13T03:37:39.499Z,985.94
2017-09-13T03:38:40.923Z,985.84
2017-09-13T03:39:42.342Z,985.86
2017-09-13T03:40:43.765Z,985.88
2017-09-13T03:41:45.188Z,985.82
2017-09-13T03:42:46.603Z,985.91
2017-09-13T03:43:48.028Z,985.67
2017-09-13T03:44:49.449Z,985.57
2017-09-13T03:45:50.866Z,985.52
2017-09-13T03:46:52.280Z,985.47
2017-09-13T03:47:53.697Z,985.39
2017-09-13T03:48:55.118Z,985.38
2017-09-13T03:49:56.584Z,985.30
2017-09-13T03:50:57.997Z,985.34
2017-09-13T03:51:59.416Z,985.25
2017-09-13T03:53:00.910Z,985.25
2017-09-13T03:54:02.340Z,985.19
2017-09-13T03:55:03.752Z,985.12
2017-09-13T03:56:05.172Z,985.17
2017-09-13T03:57:06.604Z,985.08
2017-09-13T03:58:08.049Z,984.97
2017-09-13T03:59:09.466Z,984.97
2017-09-13T04:00:10.984Z,984.92
2017-09-13T04:01:12.388Z,984.89
2017-09-13T04:02:13.805Z,985.07
2017-09-13T04:03:15.232Z,984.83
2017-09-13T04:04:16.747Z,984.82
2017-09-13T04:05:18.519Z,984.82
2017-09-13T04:06:19.923Z,984.82
2017-09-13T04:07:21.355Z,984.79
2017-09-13T04:08:22.776Z,984.77
2017-09-13T04:09:24.189Z,984.63
2017-09-13T04:10:25.979Z,984.66
2017-09-13T04:11:27.538Z,984.60
2017-09-13T04:12:28.972Z,984.48
2017-09-13T04:13:30.387Z,984.54
2017-09-13T04:14:31.799Z,984.52
2017-09-13T04:15:33.820Z,984.47
2017-09-13T04:16:35.287Z,984.47
2017-09-13T04:17:36.727Z,984.40
2017-09-13T04:18:38.180Z,984.46
2017-09-13T04:19:39.617Z,984.36
2017-09-13T04:20:41.037Z,984.32
2017-09-13T04:21:42.459Z,984.32
2017-09-13T04:22:43.910Z,984.23
2017-09-13T04:23:45.376Z,984.28
2017-09-13T04:24:46.917Z,984.27
2017-09-13T04:25:49.373Z,984.28
2017-09-13T04:26:51.637Z,984.21
2017-09-13T04:27:53.065Z,984.13
2017-09-13T04:28:54.526Z,984.18
2017-09-13T04:29:55.960Z,984.25
2017-09-13T04:30:57.381Z,984.17
2017-09-13T04:31:58.805Z,984.30
2017-09-13T04:33:00.217Z,984.11
2017-09-13T04:34:01.636Z,984.11
2017-09-13T04:35:03.052Z,984.08
2017-09-13T04:36:04.538Z,984.11
2017-09-13T04:37:05.971Z,984.09
2017-09-13T04:38:07.389Z,984.01
2017-09-13T04:39:08.810Z,983.96
2017-09-13T04:40:10.821Z,983.99
2017-09-13T04:41:12.241Z,983.93
2017-09-13T04:42:13.658Z,983.86
2017-09-13T04:43:15.070Z,983.87
2017-09-13T04:44:16.491Z,983.91
2017-09-13T04:45:17.907Z,983.92
2017-09-13T04:46:19.318Z,983.85
2017-09-13T04:47:20.731Z,983.95
2017-09-13T04:48:22.148Z,983.85
2017-09-13T04:49:23.560Z,983.84
2017-09-13T04:50:24.980Z,983.76
2017-09-13T04:51:27.233Z,983.80
2017-09-13T04:52:28.656Z,983.80
2017-09-13T04:53:30.074Z,983.81
2017-09-13T04:54:31.489Z,983.69
2017-09-13T04:55:32.919Z,983.80
2017-09-13T04:56:34.410Z,983.78
2017-09-13T04:57:35.827Z,983.75
2017-09-13T04:58:37.243Z,983.78
2017-09-13T04:59:38.659Z,983.82
2017-09-13T05:00:40.086Z,983.77
2017-09-13T05:01:41.491Z,983.80
2017-09-13T05:02:42.911Z,983.95
2017-09-13T05:03:44.324Z,983.88
2017-09-13T05:04:45.739Z,983.84
2017-09-13T05:05:47.157Z,983.90
2017-09-13T05:06:48.570Z,983.92
2017-09-13T05:07:49.989Z,983.87
2017-09-13T05:08:51.413Z,983.70
2017-09-13T05:09:52.832Z,983.68
2017-09-13T05:10:54.246Z,983.74
2017-09-13T05:11:55.672Z,983.87
2017-09-13T05:12:57.097Z,983.67
2017-09-13T05:13:58.555Z,983.68
2017-09-13T05:15:00.484Z,983.68
2017-09-13T05:16:01.899Z,983.79
2017-09-13T05:17:03.870Z,983.64
2017-09-13T05:18:05.293Z,983.78
2017-09-13T05:19:06.874Z,983.76
2017-09-13T05:20:08.427Z,983.68
2017-09-13T05:21:09.855Z,983.61
2017-09-13T05:22:11.696Z,983.65
2017-09-13T05:23:13.106Z,983.62
2017-09-13T05:24:14.532Z,983.65
2017-09-13T05:25:15.946Z,983.76
2017-09-13T05:26:17.364Z,983.70
2017-09-13T05:27:19.517Z,983.69
2017-09-13T05:28:21.177Z,983.73
2017-09-13T05:29:22.573Z,983.69
2017-09-13T05:30:24.906Z,983.63
2017-09-13T05:31:26.374Z,983.55
2017-09-13T05:32:27.800Z,983.63
2017-09-13T05:33:29.220Z,983.73
2017-09-13T05:34:30.640Z,983.61
2017-09-13T05:35:32.062Z,983.73
2017-09-13T05:36:33.479Z,983.57
2017-09-13T05:37:34.974Z,983.56
2017-09-13T05:38:36.482Z,983.57
2017-09-13T05:39:37.898Z,983.53
2017-09-13T05:40:39.315Z,983.61
2017-09-13T05:41:41.478Z,983.54
2017-09-13T05:42:42.909Z,983.61
2017-09-13T05:43:44.329Z,983.59
2017-09-13T05:44:45.747Z,983.54
2017-09-13T05:45:47.166Z,983.50
2017-09-13T05:46:48.582Z,983.52
2017-09-13T05:47:50.000Z,983.43
2017-09-13T05:48:51.421Z,983.29
2017-09-13T05:49:52.839Z,983.40
2017-09-13T05:50:55.122Z,983.28
2017-09-13T05:51:56.543Z,983.28
2017-09-13T05:52:57.969Z,983.31
2017-09-13T05:53:59.392Z,983.30
2017-09-13T05:55:00.812Z,983.28
2017-09-13T05:56:02.256Z,983.27
2017-09-13T05:57:03.677Z,983.37
2017-09-13T05:58:05.714Z,983.21
2017-09-13T05:59:07.130Z,983.37
2017-09-13T06:00:08.555Z,983.28
2017-09-13T06:01:09.986Z,983.23
2017-09-13T06:02:11.397Z,983.27
2017-09-13T06:03:12.820Z,983.25
2017-09-13T06:04:14.245Z,983.26
2017-09-13T06:05:15.668Z,983.30
2017-09-13T06:06:17.089Z,983.36
2017-09-13T06:07:18.509Z,983.42
2017-09-13T06:08:19.927Z,983.18
2017-09-13T06:09:21.347Z,983.26
2017-09-13T06:10:22.762Z,983.19
2017-09-13T06:11:24.180Z,983.20
2017-09-13T06:12:25.611Z,983.21
2017-09-13T06:13:27.030Z,983.17
2017-09-13T06:14:28.450Z,983.10
2017-09-13T06:15:29.888Z,983.19
2017-09-13T06:16:31.311Z,983.14
2017-09-13T06:17:32.735Z,983.03
2017-09-13T06:18:34.154Z,983.18
2017-09-13T06:19:35.567Z,983.18
2017-09-13T06:20:37.003Z,983.10
2017-09-13T06:21:38.437Z,983.20
2017-09-13T06:22:39.856Z,983.16
2017-09-13T06:23:41.275Z,983.18
2017-09-13T06:24:42.722Z,983.39
2017-09-13T06:25:44.122Z,983.34
2017-09-13T06:26:45.541Z,983.28
2017-09-13T06:27:46.956Z,983.36
2017-09-13T06:28:48.383Z,983.29
2017-09-13T06:29:49.803Z,983.26
2017-09-13T06:30:51.221Z,983.27
2017-09-13T06:31:52.647Z,983.34
2017-09-13T06:32:54.070Z,983.35
2017-09-13T06:33:55.490Z,983.27
2017-09-13T06:34:56.901Z,983.37
2017-09-13T06:35:58.329Z,983.26
2017-09-13T06:36:59.748Z,983.38
2017-09-13T06:38:01.173Z,983.37
2017-09-13T06:39:02.602Z,983.43
2017-09-13T06:40:04.008Z,983.40
2017-09-13T06:41:05.437Z,982.73
2017-09-13T06:42:07.578Z,982.13
2017-09-13T06:43:08.997Z,982.12
2017-09-13T06:44:10.421Z,982.25
2017-09-13T06:45:11.843Z,982.26
2017-09-13T06:46:13.267Z,982.38
2017-09-13T06:47:14.682Z,982.28
2017-09-13T06:48:16.105Z,982.43
2017-09-13T06:49:17.526Z,982.39
2017-09-13T06:50:18.964Z,982.43
2017-09-13T06:51:20.371Z,982.40
2017-09-13T06:52:21.789Z,982.42
2017-09-13T06:53:23.209Z,982.41
2017-09-13T06:54:24.625Z,982.46
2017-09-13T06:55:26.048Z,982.41
2017-09-13T06:56:27.470Z,982.55
2017-09-13T06:57:28.908Z,982.49
2017-09-13T06:58:30.323Z,982.54
2017-09-13T06:59:31.744Z,982.59
2017-09-13T07:00:33.899Z,982.73
2017-09-13T07:01:35.323Z,982.74
2017-09-13T07:02:36.753Z,982.80
2017-09-13T07:03:38.252Z,982.76
2017-09-13T07:04:39.680Z,982.84
2017-09-13T07:05:41.873Z,982.79
2017-09-13T07:06:43.297Z,982.81
2017-09-13T07:07:45.013Z,982.70
2017-09-13T07:08:46.883Z,982.88
2017-09-13T07:09:49.169Z,982.88
2017-09-13T07:10:50.397Z,982.94
2017-09-13T07:11:51.839Z,983.10
2017-09-13T07:12:53.261Z,983.11
2017-09-13T07:13:54.679Z,983.29
2017-09-13T07:14:56.098Z,983.23
2017-09-13T07:15:57.521Z,983.26
2017-09-13T07:16:58.940Z,983.27
2017-09-13T07:18:00.364Z,983.22
2017-09-13T07:19:01.778Z,983.39
2017-09-13T07:20:03.202Z,983.31
2017-09-13T07:21:04.617Z,983.46
2017-09-13T07:22:06.039Z,983.35
2017-09-13T07:23:07.465Z,983.58
2017-09-13T07:24:08.879Z,983.54
2017-09-13T07:25:10.298Z,983.57
2017-09-13T07:26:11.713Z,983.58
2017-09-13T07:27:13.131Z,983.54
2017-09-13T07:28:14.560Z,983.52
2017-09-13T07:29:15.979Z,983.61
2017-09-13T07:30:17.397Z,983.56
2017-09-13T07:31:19.185Z,983.71
2017-09-13T07:32:20.705Z,983.62
2017-09-13T07:33:22.126Z,983.65
2017-09-13T07:34:23.551Z,983.77
2017-09-13T07:35:24.976Z,983.92
2017-09-13T07:36:26.460Z,983.97
2017-09-13T07:37:27.886Z,983.93
2017-09-13T07:38:29.304Z,984.10
2017-09-13T07:39:30.821Z,984.10
2017-09-13T07:40:32.244Z,984.10
2017-09-13T07:41:33.659Z,984.32
2017-09-13T07:42:35.095Z,984.19
2017-09-13T07:43:36.548Z,984.18
2017-09-13T07:44:37.969Z,984.13
2017-09-13T07:45:39.393Z,984.23
2017-09-13T07:46:40.892Z,984.30
2017-09-13T07:47:42.336Z,984.42
2017-09-13T07:48:43.758Z,984.36
2017-09-13T07:49:45.184Z,984.40
2017-09-13T07:50:46.603Z,984.45
2017-09-13T07:51:48.032Z,984.41
2017-09-13T07:52:49.451Z,984.63
2017-09-13T07:53:50.870Z,984.68
2017-09-13T07:54:52.295Z,984.64
2017-09-13T07:55:53.716Z,984.58
2017-09-13T07:56:55.139Z,984.73
2017-09-13T07:57:56.571Z,984.55
2017-09-13T07:58:57.981Z,984.59
2017-09-13T07:59:59.405Z,984.68
2017-09-13T08:01:00.822Z,984.46
2017-09-13T08:02:02.253Z,984.86
2017-09-13T08:03:03.677Z,984.54
2017-09-13T08:04:05.097Z,984.57
2017-09-13T08:05:06.523Z,984.72
2017-09-13T08:06:07.941Z,984.71
2017-09-13T08:07:09.369Z,984.66
2017-09-13T08:08:10.792Z,984.73
2017-09-13T08:09:12.223Z,984.62
2017-09-13T08:10:13.638Z,984.81
2017-09-13T08:11:15.056Z,984.70
2017-09-13T08:12:16.478Z,984.74
2017-09-13T08:13:17.914Z,984.81
2017-09-13T08:14:19.329Z,984.99
2017-09-13T08:15:20.757Z,984.72
2017-09-13T08:16:22.177Z,984.95
2017-09-13T08:17:23.600Z,985.04
2017-09-13T08:18:25.023Z,985.12
2017-09-13T08:19:26.462Z,984.94
2017-09-13T08:20:27.884Z,985.06
2017-09-13T08:21:29.300Z,985.04
2017-09-13T08:22:30.725Z,985.02
2017-09-13T08:23:32.145Z,985.24
2017-09-13T08:24:33.566Z,984.96
2017-09-13T08:25:34.989Z,984.97
2017-09-13T08:26:36.419Z,985.05
2017-09-13T08:27:37.851Z,985.02
2017-09-13T08:28:39.274Z,985.16
2017-09-13T08:29:40.701Z,985.15
2017-09-13T08:30:42.121Z,985.13
2017-09-13T08:31:43.540Z,985.34
2017-09-13T08:32:44.967Z,985.39
2017-09-13T08:33:46.394Z,985.37
2017-09-13T08:34:47.826Z,985.58
2017-09-13T08:35:49.258Z,985.33
2017-09-13T08:36:50.672Z,985.32
2017-09-13T08:37:52.090Z,985.40
2017-09-13T08:38:53.509Z,985.27
2017-09-13T08:39:54.945Z,985.23
2017-09-13T08:40:56.369Z,985.35
2017-09-13T08:41:57.789Z,985.46
2017-09-13T08:42:59.217Z,985.60
2017-09-13T08:44:00.645Z,985.68
2017-09-13T08:45:02.077Z,985.52
2017-09-13T08:46:03.496Z,985.64
2017-09-13T08:47:04.919Z,985.68
2017-09-13T08:48:06.352Z,985.79
2017-09-13T08:49:07.776Z,985.56
2017-09-13T08:50:09.197Z,985.60
2017-09-13T08:51:10.621Z,985.84
2017-09-13T08:52:12.039Z,985.87
2017-09-13T08:53:13.458Z,985.85
2017-09-13T08:54:14.882Z,985.81
2017-09-13T08:55:16.311Z,985.98
2017-09-13T08:56:17.742Z,985.89
2017-09-13T08:57:20.022Z,985.91
2017-09-13T08:58:21.462Z,985.94
2017-09-13T08:59:22.887Z,985.89
2017-09-13T09:00:24.305Z,986.05
2017-09-13T09:01:25.731Z,986.13
2017-09-13T09:02:27.147Z,986.05
2017-09-13T09:03:28.575Z,986.18
2017-09-13T09:04:29.995Z,985.91
2017-09-13T09:05:31.415Z,986.04
2017-09-13T09:06:32.840Z,986.21
2017-09-13T09:07:34.264Z,986.33
2017-09-13T09:08:35.699Z,986.31
2017-09-13T09:09:37.132Z,986.22
2017-09-13T09:10:38.551Z,986.24
2017-09-13T09:11:39.982Z,986.25
2017-09-13T09:12:41.407Z,986.20
2017-09-13T09:13:42.832Z,986.31
2017-09-13T09:14:44.262Z,986.33
2017-09-13T09:15:45.682Z,986.38
2017-09-13T09:16:47.111Z,986.25
2017-09-13T09:17:48.528Z,986.43
2017-09-13T09:18:49.950Z,986.42
2017-09-13T09:19:51.385Z,986.26
2017-09-13T09:20:52.813Z,986.40
2017-09-13T09:21:54.230Z,986.47
2017-09-13T09:22:55.651Z,986.36
2017-09-13T09:23:57.121Z,986.41
2017-09-13T09:24:58.568Z,986.36
2017-09-13T09:26:00.007Z,986.41
2017-09-13T09:27:01.439Z,986.54
2017-09-13T09:28:02.914Z,986.43
2017-09-13T09:29:05.018Z,986.33
2017-09-13T09:30:06.435Z,986.48
2017-09-13T09:31:07.854Z,986.55
2017-09-13T09:32:09.275Z,986.51
2017-09-13T09:33:10.696Z,986.40
2017-09-13T09:34:12.125Z,986.36
2017-09-13T09:35:13.550Z,986.33
2017-09-13T09:36:14.972Z,986.39
2017-09-13T09:37:16.396Z,986.32
2017-09-13T09:38:17.830Z,986.38
2017-09-13T09:39:19.260Z,986.55
2017-09-13T09:40:20.679Z,986.43
2017-09-13T09:41:22.104Z,986.41
2017-09-13T09:42:23.532Z,986.40
2017-09-13T09:43:24.966Z,986.52
2017-09-13T09:44:26.392Z,986.60
2017-09-13T09:45:27.823Z,986.55
2017-09-13T09:46:29.245Z,986.60
2017-09-13T09:47:30.666Z,986.63
2017-09-13T09:48:32.776Z,986.50
2017-09-13T09:49:34.207Z,986.70
2017-09-13T09:50:35.686Z,986.73
2017-09-13T09:51:37.603Z,986.72
2017-09-13T09:52:39.024Z,986.77
2017-09-13T09:53:40.453Z,986.42
2017-09-13T09:54:41.902Z,986.78
2017-09-13T09:55:43.328Z,986.82
2017-09-13T09:56:44.761Z,986.79
2017-09-13T09:57:46.195Z,986.90
2017-09-13T09:58:47.626Z,987.05
2017-09-13T09:59:49.049Z,987.00
2017-09-13T10:00:50.474Z,986.98
2017-09-13T10:01:51.893Z,986.88
2017-09-13T10:02:53.318Z,986.86
2017-09-13T10:03:54.744Z,987.11
2017-09-13T10:04:56.174Z,987.00
2017-09-13T10:05:57.610Z,986.94
2017-09-13T10:06:59.034Z,987.14
2017-09-13T10:08:00.458Z,987.20
2017-09-13T10:09:01.881Z,987.04
2017-09-13T10:10:03.307Z,987.07
2017-09-13T10:11:04.729Z,986.93
2017-09-13T10:12:06.151Z,987.09
2017-09-13T10:13:07.579Z,986.99
2017-09-13T10:14:09.010Z,987.17
2017-09-13T10:15:10.446Z,987.07
2017-09-13T10:16:11.885Z,987.04
2017-09-13T10:17:13.309Z,987.21
2017-09-13T10:18:14.744Z,987.04
2017-09-13T10:19:16.173Z,987.11
2017-09-13T10:20:17.607Z,987.17
2017-09-13T10:21:19.038Z,987.12
2017-09-13T10:22:20.477Z,987.03
2017-09-13T10:23:21.904Z,987.09
2017-09-13T10:24:23.334Z,987.20
2017-09-13T10:25:24.771Z,986.95
2017-09-13T10:26:26.201Z,987.08
2017-09-13T10:27:27.623Z,987.09
2017-09-13T10:28:29.056Z,987.16
2017-09-13T10:29:30.481Z,987.23
2017-09-13T10:30:31.914Z,987.22
2017-09-13T10:31:33.341Z,987.19
2017-09-13T10:32:34.761Z,987.09
2017-09-13T10:33:36.189Z,987.31
2017-09-13T10:34:37.613Z,987.22
2017-09-13T10:35:39.045Z,987.15
2017-09-13T10:36:40.462Z,987.35
2017-09-13T10:37:41.894Z,987.30
2017-09-13T10:38:43.316Z,987.36
2017-09-13T10:39:44.741Z,987.35
2017-09-13T10:40:46.164Z,987.55
2017-09-13T10:41:47.586Z,987.45
2017-09-13T10:42:49.015Z,987.45
2017-09-13T10:43:50.456Z,987.46
2017-09-13T10:44:51.885Z,987.42
2017-09-13T10:45:53.304Z,987.60
2017-09-13T10:46:54.732Z,987.62
2017-09-13T10:47:56.160Z,987.66
2017-09-13T10:48:57.592Z,987.61
2017-09-13T10:49:59.015Z,987.51
2017-09-13T10:51:00.442Z,987.76
2017-09-13T10:52:01.882Z,987.81
2017-09-13T10:53:03.307Z,987.75
2017-09-13T10:54:04.737Z,987.81
2017-09-13T10:55:06.163Z,987.83
2017-09-13T10:56:07.593Z,987.84
2017-09-13T10:57:09.016Z,987.89
2017-09-13T10:58:10.465Z,987.87
2017-09-13T10:59:11.887Z,987.93
2017-09-13T11:00:13.310Z,987.98
2017-09-13T11:01:14.740Z,987.97
2017-09-13T11:02:16.170Z,987.87
2017-09-13T11:03:17.605Z,987.99
2017-09-13T11:04:19.032Z,988.01
2017-09-13T11:05:20.459Z,988.03
2017-09-13T11:06:21.892Z,987.88
2017-09-13T11:07:23.315Z,987.89
2017-09-13T11:08:24.746Z,987.94
2017-09-13T11:09:26.190Z,987.98
2017-09-13T11:10:27.611Z,987.97
2017-09-13T11:11:29.033Z,988.13
2017-09-13T11:12:30.457Z,988.03
2017-09-13T11:13:31.892Z,987.99
2017-09-13T11:14:33.321Z,988.14
2017-09-13T11:15:34.752Z,988.29
2017-09-13T11:16:36.185Z,988.16
2017-09-13T11:17:37.608Z,988.22
2017-09-13T11:18:39.034Z,988.17
2017-09-13T11:19:40.480Z,988.22
2017-09-13T11:20:41.914Z,988.19
2017-09-13T11:21:43.349Z,988.12
2017-09-13T11:22:44.774Z,988.13
2017-09-13T11:23:46.199Z,988.08
2017-09-13T11:24:47.633Z,988.32
2017-09-13T11:25:49.061Z,988.07
2017-09-13T11:26:50.484Z,988.19
2017-09-13T11:27:51.916Z,988.07
2017-09-13T11:28:53.342Z,988.50
2017-09-13T11:29:54.772Z,988.42
2017-09-13T11:30:56.196Z,988.40
2017-09-13T11:31:57.623Z,988.13
2017-09-13T11:32:59.047Z,988.52
2017-09-13T11:34:00.483Z,988.61
2017-09-13T11:35:01.928Z,988.65
2017-09-13T11:36:03.364Z,988.68
2017-09-13T11:37:04.798Z,988.72
2017-09-13T11:38:06.335Z,988.62
2017-09-13T11:39:07.770Z,988.55
2017-09-13T11:40:09.192Z,988.70
2017-09-13T11:41:10.658Z,988.67
2017-09-13T11:42:12.081Z,988.72
2017-09-13T11:43:13.510Z,988.62
2017-09-13T11:44:14.984Z,988.70
2017-09-13T11:45:16.414Z,988.78
2017-09-13T11:46:17.837Z,988.92
2017-09-13T11:47:19.269Z,988.94
2017-09-13T11:48:20.747Z,989.00
2017-09-13T11:49:22.183Z,988.83
2017-09-13T11:50:23.613Z,988.69
2017-09-13T11:51:25.044Z,988.98
2017-09-13T11:52:26.493Z,988.83
2017-09-13T11:53:27.919Z,988.96
2017-09-13T11:54:29.360Z,989.10
2017-09-13T11:55:30.850Z,988.90
2017-09-13T11:56:32.280Z,988.95
2017-09-13T11:57:33.719Z,988.95
2017-09-13T11:58:35.137Z,989.03
2017-09-13T11:59:36.566Z,988.99
2017-09-13T12:00:38.029Z,989.08
2017-09-13T12:01:39.417Z,989.19
2017-09-13T12:02:40.844Z,989.12
2017-09-13T12:03:42.282Z,989.15
2017-09-13T12:04:43.710Z,989.08
2017-09-13T12:05:45.146Z,989.12
2017-09-13T12:06:46.570Z,989.21
2017-09-13T12:07:48.000Z,989.43
2017-09-13T12:08:49.434Z,989.35
2017-09-13T12:09:50.858Z,989.15
2017-09-13T12:10:52.279Z,989.27
2017-09-13T12:11:53.714Z,989.35
2017-09-13T12:12:55.155Z,989.37
2017-09-13T12:13:56.574Z,989.38
2017-09-13T12:14:57.998Z,989.56
2017-09-13T12:15:59.426Z,989.27
2017-09-13T12:17:00.855Z,989.36
2017-09-13T12:18:02.282Z,989.36
2017-09-13T12:19:03.709Z,989.63
2017-09-13T12:20:05.132Z,989.42
2017-09-13T12:21:06.580Z,989.60
2017-09-13T12:22:08.011Z,989.58
2017-09-13T12:23:09.452Z,989.35
2017-09-13T12:24:10.882Z,989.53
2017-09-13T12:25:12.314Z,989.53
2017-09-13T12:26:13.745Z,989.51
2017-09-13T12:27:15.169Z,989.58
2017-09-13T12:28:16.601Z,989.60
2017-09-13T12:29:18.024Z,989.52
2017-09-13T12:30:19.449Z,989.56
2017-09-13T12:31:20.876Z,989.49
2017-09-13T12:32:22.306Z,989.46
2017-09-13T12:33:23.744Z,989.38
2017-09-13T12:34:25.174Z,989.48
2017-09-13T12:35:26.617Z,989.45
2017-09-13T12:36:28.039Z,989.43
2017-09-13T12:37:29.467Z,989.53
2017-09-13T12:38:30.895Z,989.46
2017-09-13T12:39:32.317Z,989.56
2017-09-13T12:40:34.310Z,989.46
2017-09-13T12:41:35.734Z,989.60
2017-09-13T12:42:37.177Z,989.68
2017-09-13T12:43:38.607Z,989.81
2017-09-13T12:44:40.033Z,989.74
2017-09-13T12:45:41.465Z,989.70
2017-09-13T12:46:42.888Z,989.77